Time;durP1;ratioP1;P1;durP2;ratioP2;P2;SDS_P1;SDS_P2;PMS_P1;PMS_P2;Temp;Humidity;BMP_temperature;BMP_pressure;BME280_temperature;BME280_humidity;BME280_pressure;Samples;Min_cycle;Max_cycle;Signal;HPM_P1;HPM_P2
2022/07/30 17:46:33;;;;;;;8.80;4.47;;;;;;;25.13;51.04;148443.59;1802166;79;22291;-55
2022/07/30 17:49:02;;;;;;;9.88;4.83;;;;;;;25.02;51.23;148414.47;1762430;80;21067;-60
2022/07/30 17:51:34;;;;;;;6.75;4.35;;;;;;;24.98;51.37;148404.31;1728744;83;21485;-62
2022/07/30 17:54:04;;;;;;;6.03;4.20;;;;;;;24.96;51.53;148399.22;1728680;83;21127;-60
2022/07/30 17:56:35;;;;;;;8.20;3.85;;;;;;;24.93;51.68;148391.64;1712924;83;21003;-56
2022/07/30 17:59:08;;;;;;;6.78;3.90;;;;;;;24.87;51.88;148378.97;1729118;81;21528;-58
2022/07/30 18:01:37;;;;;;;6.30;3.40;;;;;;;24.86;52.00;148376.44;1728881;83;21043;-59
2022/07/30 18:04:04;;;;;;;7.42;3.70;;;;;;;24.84;52.16;148371.36;1728717;83;21857;-57
2022/07/30 18:06:33;;;;;;;6.80;4.15;;;;;;;24.84;52.32;148370.11;1728252;83;21590;-57
2022/07/30 18:09:03;;;;;;;10.55;4.33;;;;;;;24.81;52.45;148363.77;1728684;83;21046;-57
2022/07/30 18:11:31;;;;;;;8.93;4.12;;;;;;;24.79;52.69;148357.44;1727187;83;21550;-55
2022/07/30 18:14:02;;;;;;;8.58;3.58;;;;;;;24.77;52.84;148352.36;1726018;82;21047;-55
2022/07/30 18:16:30;;;;;;;7.20;3.80;;;;;;;24.74;53.12;148344.77;1728896;82;21010;-57
2022/07/30 18:18:57;;;;;;;6.05;3.60;;;;;;;24.66;53.52;148327.00;1728651;83;21034;-54
2022/07/30 18:21:26;;;;;;;7.97;3.90;;;;;;;24.61;53.77;148313.08;1728726;83;21059;-59
2022/07/30 18:23:53;;;;;;;6.70;4.05;;;;;;;24.62;53.87;148316.86;1728581;82;21062;-59
2022/07/30 18:26:21;;;;;;;10.35;4.20;;;;;;;24.61;53.96;148313.08;1728961;83;21003;-54
2022/07/30 18:28:50;;;;;;;9.58;4.37;;;;;;;24.63;54.12;148318.16;1728817;83;21540;-61
2022/07/30 18:31:17;;;;;;;10.35;4.80;;;;;;;24.66;54.30;148325.75;1700195;83;21039;-56
2022/07/30 18:33:44;;;;;;;9.00;4.30;;;;;;;24.55;54.63;148297.84;1728662;83;21016;-55
2022/07/30 18:36:14;;;;;;;7.25;4.03;;;;;;;24.45;55.03;148275.06;1700123;83;20995;-60
2022/07/30 18:38:48;;;;;;;7.37;3.80;;;;;;;24.47;55.14;148280.16;1728667;83;21015;-59
2022/07/30 18:41:16;;;;;;;9.83;3.85;;;;;;;24.43;55.46;148268.69;1728598;83;21039;-55
2022/07/30 18:43:44;;;;;;;11.90;4.43;;;;;;;24.39;55.77;148259.78;1728997;83;21027;-52
2022/07/30 18:46:11;;;;;;;7.05;3.70;;;;;;;24.33;55.95;148244.59;1723060;83;21044;-58
2022/07/30 18:48:39;;;;;;;7.17;4.78;;;;;;;24.26;56.55;148226.86;1720881;83;21004;-54
2022/07/30 18:51:09;;;;;;;8.33;4.30;;;;;;;24.24;56.57;148221.78;1720827;83;21012;-55
2022/07/30 18:53:37;;;;;;;7.45;3.80;;;;;;;24.18;57.16;148206.59;1720876;83;21036;-53
2022/07/30 18:56:07;;;;;;;6.22;3.95;;;;;;;24.17;57.45;148204.03;1725029;82;21063;-59
2022/07/30 18:58:38;;;;;;;7.97;4.30;;;;;;;24.08;58.12;148181.27;1756405;82;21059;-54
2022/07/30 19:01:07;;;;;;;9.30;4.20;;;;;;;23.99;58.53;148161.00;1709244;82;21036;-58
2022/07/30 19:03:35;;;;;;;5.35;3.83;;;;;;;23.95;59.24;148149.59;1711705;82;21556;-59
2022/07/30 19:06:02;;;;;;;8.20;4.42;;;;;;;23.90;59.58;148138.19;1726840;82;21086;-58
2022/07/30 19:08:31;;;;;;;7.87;4.17;;;;;;;23.86;59.79;148128.03;1726533;83;21009;-56
2022/07/30 19:11:00;;;;;;;9.68;4.30;;;;;;;23.85;60.13;148125.53;1730171;82;21043;-56
2022/07/30 19:13:29;;;;;;;8.28;4.42;;;;;;;23.82;60.45;148117.94;1756739;82;21032;-56
2022/07/30 19:15:57;;;;;;;11.18;4.62;;;;;;;23.76;60.81;148104.02;1756587;82;21063;-54
2022/07/30 19:18:24;;;;;;;6.92;3.87;;;;;;;23.69;61.46;148084.97;1756612;82;21515;-57
2022/07/30 19:20:52;;;;;;;11.40;4.58;;;;;;;23.62;61.62;148068.48;1720770;83;21011;-57
2022/07/30 19:23:19;;;;;;;9.83;4.62;;;;;;;23.58;62.21;148059.64;1756512;80;21032;-58
2022/07/30 19:25:48;;;;;;;8.03;4.30;;;;;;;23.56;62.26;148054.56;1720581;83;21083;-59
2022/07/30 19:28:16;;;;;;;9.38;4.70;;;;;;;23.60;62.34;148064.66;1756561;80;21028;-55
2022/07/30 19:30:43;;;;;;;8.75;4.33;;;;;;;23.55;63.08;148052.00;1720380;83;21059;-55
2022/07/30 19:33:12;;;;;;;11.95;4.72;;;;;;;23.47;63.48;148031.75;1756538;82;21079;-59
2022/07/30 19:35:43;;;;;;;12.20;4.72;;;;;;;23.49;63.36;148036.83;1756669;80;21059;-57
2022/07/30 19:38:12;;;;;;;8.28;4.15;;;;;;;23.48;63.83;148034.27;1756650;81;20992;-54
2022/07/30 19:40:43;;;;;;;11.15;4.35;;;;;;;23.42;64.27;148017.84;1756673;82;21529;-62
2022/07/30 19:43:10;;;;;;;7.08;4.83;;;;;;;23.37;64.36;148007.69;1756708;80;21607;-55
2022/07/30 19:45:37;;;;;;;7.65;4.60;;;;;;;23.37;64.64;148006.44;1758902;81;21528;-55
2022/07/30 19:48:07;;;;;;;9.60;4.55;;;;;;;23.32;64.91;147995.03;1725995;82;21015;-59
2022/07/30 19:50:36;;;;;;;9.87;4.83;;;;;;;23.26;65.28;147978.59;1725923;83;21000;-55
2022/07/30 19:53:06;;;;;;;8.98;4.60;;;;;;;23.32;64.99;147993.77;1721454;79;21109;-55
2022/07/30 19:55:36;;;;;;;7.35;4.72;;;;;;;23.44;64.82;148024.17;1716706;83;21008;-55
2022/07/30 19:58:08;;;;;;;8.40;4.28;;;;;;;23.43;64.98;148020.34;1723646;81;21079;-54
2022/07/30 20:00:36;;;;;;;10.03;4.87;;;;;;;23.34;65.17;147998.84;1753482;81;21023;-53
2022/07/30 20:03:03;;;;;;;8.48;4.58;;;;;;;23.31;65.52;147992.52;1736874;81;21113;-53
2022/07/30 20:05:30;;;;;;;6.65;4.28;;;;;;;23.30;65.58;147988.69;1737273;83;21562;-54
2022/07/30 20:07:59;;;;;;;7.47;4.30;;;;;;;23.25;65.79;147976.03;1706611;84;21079;-54
2022/07/30 20:10:26;;;;;;;8.33;4.42;;;;;;;23.17;66.20;147958.31;1737659;83;21503;-54
2022/07/30 20:12:54;;;;;;;7.35;4.28;;;;;;;23.12;66.29;147945.64;1706896;84;21505;-55
2022/07/30 20:15:21;;;;;;;8.30;4.50;;;;;;;23.09;66.72;147938.06;1737571;83;21003;-54
2022/07/30 20:17:48;;;;;;;9.60;4.10;;;;;;;23.07;67.03;147932.98;1705664;84;21110;-55
2022/07/30 20:20:17;;;;;;;9.58;4.42;;;;;;;23.04;67.18;147925.41;1732664;83;21542;-55
2022/07/30 20:22:44;;;;;;;5.80;4.40;;;;;;;22.96;67.64;147905.11;1737696;82;21075;-55
2022/07/30 20:25:13;;;;;;;9.85;4.22;;;;;;;22.83;68.15;147873.47;1737321;83;21043;-54
2022/07/30 20:27:40;;;;;;;8.40;5.20;;;;;;;22.76;68.49;147857.00;1737736;82;21098;-54
2022/07/30 20:30:09;;;;;;;6.50;4.53;;;;;;;22.75;68.68;147853.22;1737472;81;21538;-54
2022/07/30 20:32:37;;;;;;;6.60;4.47;;;;;;;22.75;68.80;147854.48;1737829;82;21093;-54
2022/07/30 20:35:09;;;;;;;9.50;4.55;;;;;;;22.74;68.92;147851.97;1708859;82;21525;-54
2022/07/30 20:37:38;;;;;;;9.68;4.65;;;;;;;22.74;68.89;147850.66;1737424;81;21090;-55
2022/07/30 20:40:08;;;;;;;11.08;4.67;;;;;;;22.71;69.10;147844.34;1737087;83;21031;-54
2022/07/30 20:42:37;;;;;;;6.50;4.22;;;;;;;22.70;69.26;147841.83;1737786;82;21489;-54
2022/07/30 20:45:07;;;;;;;8.38;4.47;;;;;;;22.73;69.19;147848.16;1718720;83;21532;-54
2022/07/30 20:47:37;;;;;;;9.03;4.45;;;;;;;22.71;69.37;147843.08;1737749;81;20992;-55
2022/07/30 20:50:11;;;;;;;7.05;4.53;;;;;;;22.72;69.49;147845.64;1737811;81;21457;-54
2022/07/30 20:52:42;;;;;;;10.70;4.58;;;;;;;22.71;69.51;147843.08;1739307;81;21119;-53
2022/07/30 20:55:12;;;;;;;7.75;4.53;;;;;;;22.68;69.69;147836.75;1774694;81;21044;-54
2022/07/30 20:57:41;;;;;;;8.18;4.00;;;;;;;22.62;69.95;147821.59;1745690;81;21534;-53
2022/07/30 21:00:11;;;;;;;9.10;4.58;;;;;;;22.53;70.30;147800.05;1740888;81;21510;-53
2022/07/30 21:02:39;;;;;;;7.85;4.67;;;;;;;22.48;70.73;147786.14;1740656;82;21097;-54
2022/07/30 21:05:07;;;;;;;6.40;4.45;;;;;;;22.43;70.82;147773.48;1740567;82;21518;-53
2022/07/30 21:07:35;;;;;;;9.35;4.72;;;;;;;22.35;71.32;147754.50;1740639;81;21018;-54
2022/07/30 21:10:05;;;;;;;8.35;4.87;;;;;;;22.28;71.67;147738.03;1740925;81;20994;-54
2022/07/30 21:12:32;;;;;;;6.90;4.72;;;;;;;22.22;72.09;147722.87;1740828;81;21569;-54
2022/07/30 21:14:59;;;;;;;8.78;5.30;;;;;;;22.21;72.20;147720.38;1740410;81;21517;-54
2022/07/30 21:17:28;;;;;;;10.15;4.60;;;;;;;22.15;72.50;147705.11;1740672;82;21051;-54
2022/07/30 21:19:56;;;;;;;9.33;4.80;;;;;;;22.15;72.68;147705.11;1741056;82;21079;-55
2022/07/30 21:22:26;;;;;;;10.68;4.65;;;;;;;22.20;72.56;147716.55;1740934;82;21000;-54
2022/07/30 21:24:55;;;;;;;10.75;4.92;;;;;;;22.18;72.72;147711.44;1740653;82;21098;-54
2022/07/30 21:27:22;;;;;;;7.97;4.65;;;;;;;22.19;72.61;147714.00;1740767;82;21496;-54
2022/07/30 21:29:51;;;;;;;8.73;4.65;;;;;;;22.15;72.95;147705.11;1740928;82;21043;-53
2022/07/30 21:32:20;;;;;;;8.93;4.30;;;;;;;22.13;73.16;147698.78;1741017;82;21019;-54
2022/07/30 21:34:47;;;;;;;16.15;5.42;;;;;;;22.08;73.38;147687.38;1740809;82;21004;-55
2022/07/30 21:37:17;;;;;;;7.72;4.95;;;;;;;22.02;73.80;147672.22;1764413;81;21569;-54
2022/07/30 21:39:46;;;;;;;7.45;4.40;;;;;;;21.96;73.91;147657.06;1764355;81;21581;-54
2022/07/30 21:42:17;;;;;;;10.40;4.87;;;;;;;21.96;74.07;147657.06;1761533;81;21095;-54
2022/07/30 21:44:48;;;;;;;9.35;4.40;;;;;;;21.95;74.25;147654.50;1761557;81;21182;-53
2022/07/30 21:47:19;;;;;;;;;;;;;;;21.94;74.29;147653.25;1764027;81;21045;-53
2022/07/30 21:49:46;;;;;;;9.68;4.40;;;;;;;22.00;74.13;147667.16;1761546;81;20094;-54
2022/07/30 21:52:13;;;;;;;9.55;4.62;;;;;;;22.03;74.18;147674.73;1761425;81;21017;-53
2022/07/30 21:54:48;;;;;;;9.43;4.90;;;;;;;21.99;74.19;147665.91;1751500;81;21527;-53
2022/07/30 21:57:12;;;;;;;9.20;4.97;;;;;;;21.96;74.47;147657.06;1748398;82;21491;-53
2022/07/30 21:59:38;;;;;;;10.28;5.03;;;;;;;21.88;74.83;147639.34;1749107;82;21042;-52
2022/07/30 22:02:08;;;;;;;10.95;4.75;;;;;;;21.80;75.28;147619.08;1748958;82;20998;-53
2022/07/30 22:04:35;;;;;;;10.30;4.72;;;;;;;21.80;75.25;147619.08;1748807;82;21025;-53
2022/07/30 22:07:03;;;;;;;10.88;4.92;;;;;;;21.77;75.64;147610.25;1749027;82;21042;-53
2022/07/30 22:09:30;;;;;;;9.15;4.35;;;;;;;21.71;75.93;147596.34;1748937;82;21057;-53
2022/07/30 22:11:57;;;;;;;11.12;4.65;;;;;;;21.77;75.61;147610.25;1748928;82;21508;-53
2022/07/30 22:14:25;;;;;;;7.65;4.80;;;;;;;21.82;75.48;147624.14;1748874;82;21058;-54
2022/07/30 22:16:52;;;;;;;10.68;4.83;;;;;;;21.76;75.78;147608.98;1748902;82;21127;-54
2022/07/30 22:19:20;;;;;;;6.47;4.62;;;;;;;21.74;75.83;147603.92;1748870;82;21085;-54
2022/07/30 22:21:49;;;;;;;13.55;4.50;;;;;;;21.75;75.99;147605.17;1749100;82;21003;-54
2022/07/30 22:24:16;;;;;;;12.65;5.00;;;;;;;21.75;75.88;147606.44;1748902;82;21010;-54
2022/07/30 22:26:44;;;;;;;6.17;4.40;;;;;;;21.82;75.65;147624.14;1748820;82;21018;-54
2022/07/30 22:29:11;;;;;;;8.63;5.62;;;;;;;21.85;75.49;147631.77;1749123;82;21002;-55
2022/07/30 22:31:38;;;;;;;10.70;4.90;;;;;;;21.79;75.63;147616.56;1749107;82;20987;-53
2022/07/30 22:34:07;;;;;;;8.85;4.87;;;;;;;21.75;75.64;147606.44;1749044;82;21440;-54
2022/07/30 22:36:34;;;;;;;7.47;4.37;;;;;;;21.76;75.71;147608.98;1725513;82;21473;-55
2022/07/30 22:39:02;;;;;;;8.98;5.00;;;;;;;21.74;75.59;147602.66;1748975;82;21031;-56
2022/07/30 22:41:29;;;;;;;8.20;4.80;;;;;;;21.71;75.74;147596.34;1749292;82;21026;-54
2022/07/30 22:43:56;;;;;;;8.90;4.55;;;;;;;21.66;75.92;147583.69;1748941;82;21022;-55
2022/07/30 22:46:25;;;;;;;9.28;4.53;;;;;;;21.63;75.99;147576.11;1749160;82;20979;-53
2022/07/30 22:48:53;;;;;;;6.42;4.47;;;;;;;21.64;75.97;147578.63;1748991;82;21006;-55
2022/07/30 22:51:22;;;;;;;12.82;4.47;;;;;;;21.59;76.01;147567.23;1749009;82;20987;-54
2022/07/30 22:53:48;;;;;;;6.55;4.22;;;;;;;21.55;76.27;147557.14;1749101;82;21031;-54
2022/07/30 22:56:19;;;;;;;7.83;4.00;;;;;;;21.51;76.35;147545.75;1749084;82;21050;-54
2022/07/30 22:58:44;;;;;;;9.18;4.10;;;;;;;21.46;76.28;147535.63;1748728;82;21097;-54
2022/07/30 23:01:11;;;;;;;7.33;4.53;;;;;;;21.42;76.52;147525.53;1749093;82;20995;-54
2022/07/30 23:03:37;;;;;;;9.63;4.83;;;;;;;21.38;76.87;147515.41;1748961;82;21026;-54
2022/07/30 23:06:06;;;;;;;8.10;4.50;;;;;;;21.32;77.44;147500.19;1749034;82;21499;-53
2022/07/30 23:08:34;;;;;;;14.28;5.42;;;;;;;21.29;77.77;147491.31;1749046;82;20947;-54
2022/07/30 23:11:01;;;;;;;9.80;4.20;;;;;;;21.28;77.80;147490.06;1749109;82;20964;-54
2022/07/30 23:13:28;;;;;;;9.40;4.22;;;;;;;21.28;77.85;147488.81;1748957;82;21058;-53
2022/07/30 23:15:58;;;;;;;5.97;4.45;;;;;;;21.21;78.13;147473.61;1748925;82;21492;-54
2022/07/30 23:18:25;;;;;;;8.93;4.72;;;;;;;21.21;77.98;147473.61;1748943;82;21097;-54
2022/07/30 23:20:57;;;;;;;9.10;4.72;;;;;;;21.26;77.79;147485.00;1748964;82;21421;-53
2022/07/30 23:23:26;;;;;;;6.45;4.10;;;;;;;21.23;77.45;147477.42;1748946;82;21014;-53
2022/07/30 23:25:53;;;;;;;8.23;4.22;;;;;;;21.15;77.77;147457.20;1748909;82;21030;-53
2022/07/30 23:28:21;;;;;;;11.00;4.83;;;;;;;21.12;77.52;147450.87;1749145;82;21042;-54
2022/07/30 23:30:48;;;;;;;12.18;4.70;;;;;;;21.11;77.37;147447.06;1748811;82;21046;-54
2022/07/30 23:33:17;;;;;;;8.43;4.55;;;;;;;21.07;77.60;147436.98;1749198;82;20979;-54
2022/07/30 23:35:43;;;;;;;9.65;3.75;;;;;;;21.01;77.40;147424.34;1748910;82;20987;-54
2022/07/30 23:38:10;;;;;;;14.33;5.83;;;;;;;21.02;77.58;147425.59;1749039;82;21038;-55
2022/07/30 23:40:39;;;;;;;9.55;4.10;;;;;;;20.98;77.25;147416.72;1748946;82;21042;-55
2022/07/30 23:43:07;;;;;;;6.05;3.85;;;;;;;20.97;77.38;147412.95;1749256;82;21416;-54
2022/07/30 23:45:34;;;;;;;6.62;4.42;;;;;;;20.94;77.32;147406.64;1748955;82;21082;-54
2022/07/30 23:48:01;;;;;;;8.23;4.20;;;;;;;20.97;76.84;147412.95;1748933;82;21026;-53
2022/07/30 23:50:30;;;;;;;7.37;4.20;;;;;;;21.01;76.61;147423.03;1748917;82;20995;-53
2022/07/30 23:52:59;;;;;;;7.22;3.92;;;;;;;20.99;76.15;147419.28;1749074;82;21495;-53
2022/07/30 23:55:27;;;;;;;11.75;4.35;;;;;;;20.97;76.33;147412.95;1761192;81;21046;-54
2022/07/30 23:57:54;;;;;;;9.05;3.98;;;;;;;20.95;76.29;147409.16;1763642;81;21025;-53
